Last 30 Days

South Creston (SLO-8)

Daily Data | America/Los_Angeles
as of 5/19/24 4:33 AM PDT
Date Daily Max Temp (°F) Time of Max Temp Daily Min Temp (°F) Time of Min Temp Daily Rain (In) Month Precip (In) Season Precip (In) Wind Spd (mph) Daily Max Wind (mph) Time of Max Wind Daily ETo (in) 7 Day ETo (in) Daily Solar Rad (Cal/cm2) Dew Pt (°F) Max RH (%) Min RH (%) Hrs 70-85F (hrs) Hrs > 95F (hrs) Powdery Mildew Stress (pts) GDDs (DL) GDDs (Mx/Mn) Seas GDDs (DL) Seas GDDs (Smpl) Max Inversion (°F) Max Inversion Time Min Inversion (°F) Min Inversion Time Max 1 Min Rain (In) Max 1 Min Rain Time Max 15 Min Rain (In) Max 15 Min Precip Time Max 60 Min Rain (In) Max 60 Min Rain Time Hrs <= 32F (hrs) Hrs <= 28F (hrs) Chilling <=45F (hrs) MinBV Day (V)
5/18/24 66.1 1645 47.8 0101 0.00 0.16 14.76 4.5 16.2 1620 0.136 1.39 523 50.5 98 63 0.00 0.00 90 6.0 7.0 405 333 2.0 2326 -5.6 1240 - - - - - - 0.0 0.0 0.0 12.5
5/17/24 71.4 1550 41.9 0122 0.00 0.16 14.76 2.8 14.5 1359 0.173 1.50 616 49.7 99 48 1.88 0.00 100 7.5 6.7 399 326 4.7 2249 -6.2 1153 - - - - - - 0.0 0.0 2.1 12.4
5/16/24 84.5 1517 43.5 0054 0.00 0.16 14.76 2.7 13.2 1144 0.205 1.55 640 49.9 99 28 7.25 0.00 100 11.3 14.0 391 319 4.7 0240 -6.0 1146 - - - - - - 0.0 0.0 1.5 12.4
5/15/24 81.9 1533 40.1 0607 0.00 0.16 14.76 2.8 12.8 1310 0.210 1.57 654 47.8 98 27 8.02 0.00 100 12.0 11.0 380 305 3.8 0159 -5.3 1214 - - - - - - 0.0 0.0 4.5 12.4
5/14/24 82.8 1412 38.8 0619 0.00 0.16 14.76 2.4 13.2 1420 0.209 1.57 643 45.6 98 24 8.01 0.00 90 11.9 10.8 368 294 4.2 0859 -5.6 1159 - - - - - - 0.0 0.0 6.0 12.3
5/13/24 82.7 1309 41.1 0557 0.00 0.16 14.76 2.8 13.2 1445 0.222 1.56 675 45.5 97 25 8.15 0.00 70 12.4 11.9 356 284 4.2 0132 -5.6 1349 - - - - - - 0.0 0.0 4.1 12.4
5/12/24 90.6 1434 43.1 0551 0.00 0.16 14.76 2.9 15.2 1701 0.238 1.52 671 46.9 96 21 3.59 0.00 80 16.3 16.9 344 272 6.9 2306 -4.9 1204 - - - - - - 0.0 0.0 1.8 12.4
5/11/24 88.2 1410 42.5 0550 0.00 0.16 14.76 3.2 18.2 1649 0.238 1.43 669 45.4 94 18 3.84 0.00 90 16.8 15.4 327 255 8.5 2207 -4.8 1114 - - - - - - 0.0 0.0 1.7 12.4
5/10/24 87.9 1536 39.0 0548 0.00 0.16 14.76 2.9 15.2 1613 0.232 1.26 674 44.9 98 16 3.66 0.00 100 15.0 13.5 311 240 6.4 2117 -5.9 1408 - - - - - - 0.0 0.0 5.7 12.4
5/9/24 82.3 1412 37.5 0539 0.00 0.16 14.76 3.0 15.8 1604 0.220 1.22 664 43.3 96 23 9.52 0.00 100 12.7 9.9 296 226 6.0 2230 -4.7 1053 - - - - - - 0.0 0.0 5.8 12.4
5/8/24 80.3 1655 36.3 0557 0.00 0.16 14.76 2.6 12.5 1325 0.213 1.21 675 40.7 100 21 8.16 0.00 90 11.8 8.3 283 216 9.9 2122 -5.2 1157 - - - - - - 0.0 0.0 7.4 12.4
5/7/24 77.6 1547 38.5 0246 0.00 0.16 14.76 3.3 13.8 1630 0.192 1.20 640 45.4 100 34 7.17 0.00 70 9.9 8.0 271 208 6.0 2259 -5.4 1444 - - - - - - 0.0 0.0 4.4 12.5
5/6/24 73.0 1705 31.8 0531 0.00 0.16 14.76 3.6 16.2 1401 0.190 1.22 668 38.9 99 26 4.02 0.00 80 8.0 2.4 261 200 6.2 2352 -5.1 1205 - - - - - - 0.3 0.0 8.6 12.4
5/5/24 64.1 1549 36.4 0634 0.00 0.16 14.76 3.3 16.2 1004 0.142 1.22 576 40.8 100 39 0.00 0.00 90 3.6 0.2 253 197 4.3 2145 -5.7 1449 - - - - - - 0.0 0.0 7.8 12.3
5/4/24 61.1 1416 37.8 0559 0.16 0.16 14.76 3.8 19.8 1448 0.071 1.26 309 47.1 99 70 0.00 0.00 100 2.6 0.0 250 197 4.8 0109 -4.1 1415 0.07 1744 0.10 1757 0.12 1842 0.0 0.0 5.1 12.4
5/3/24 81.4 1548 42.2 0429 0.00 0.00 14.60 2.5 12.5 1903 0.187 1.36 596 48.7 100 30 7.50 0.00 90 11.1 11.8 247 197 6.7 2323 -4.6 1224 - - - - - - 0.0 0.0 2.8 12.4
5/2/24 82.3 1710 34.7 0614 0.00 0.00 14.60 3.5 15.5 1445 0.213 1.31 640 42.3 97 25 8.63 0.00 70 13.4 8.5 236 185 5.9 0603 -4.7 1214 - - - - - - 0.0 0.0 6.4 12.3
5/1/24 81.3 1617 33.9 0623 0.00 0.00 14.60 3.4 20.2 1418 0.207 1.21 646 39.3 99 16 7.13 0.00 50 10.9 7.6 222 177 7.9 2112 -5.2 1258 - - - - - - 0.0 0.0 9.0 12.3
4/30/24 79.7 1600 32.1 0622 0.00 2.53 14.60 3.5 17.5 1810 0.206 1.14 664 41.6 99 29 6.78 0.00 30 10.3 5.9 212 169 7.0 2228 -4.6 1155 - - - - - - 0.0 0.0 8.2 12.3
4/29/24 77.0 1707 38.1 0630 0.00 2.53 14.60 3.9 19.2 1802 0.196 1.05 641 45.2 99 36 5.79 0.00 40 9.5 7.5 201 163 6.6 2311 -4.8 1131 - - - - - - 0.0 0.0 5.1 12.4
4/28/24 77.2 1701 37.8 0445 0.00 2.53 14.60 3.6 15.2 1844 0.186 1.02 612 46.6 99 39 6.19 0.00 20 9.7 7.5 192 156 3.7 0405 -5.3 1328 - - - - - - 0.0 0.0 6.4 12.4
4/27/24 72.4 1639 38.1 0519 0.00 2.53 14.60 3.0 12.1 1323 0.167 1.04 606 46.2 99 42 2.44 0.00 30 7.4 5.3 182 148 5.2 0420 -5.1 1217 - - - - - - 0.0 0.0 5.3 12.4
4/26/24 68.2 1409 47.4 0059 0.00 2.53 14.60 5.1 20.2 1215 0.136 1.05 492 48.1 93 44 0.00 0.00 40 6.2 7.8 175 143 1.6 2240 -4.7 1254 - - - - - - 0.0 0.0 0.0 12.5
4/25/24 67.3 1540 50.9 0623 0.00 2.53 14.60 3.8 15.5 1611 0.117 1.06 417 49.2 93 51 0.00 0.00 50 6.6 9.1 168 135 1.4 1229 -5.0 1136 - - - - - - 0.0 0.0 0.0 12.5
4/24/24 64.1 1306 40.6 0224 0.00 2.53 14.60 3.3 15.5 1702 0.129 1.13 528 46.7 99 61 0.00 0.00 60 4.0 2.4 162 126 5.3 0106 -4.8 1313 - - - - - - 0.0 0.0 5.2 12.4
4/23/24 64.0 1451 43.8 0059 0.00 2.53 14.60 4.5 15.5 1252 0.120 1.18 463 46.8 94 56 0.00 0.00 70 3.8 3.9 158 124 4.9 0059 -4.8 1330 - - - - - - 0.0 0.0 0.1 12.4
4/22/24 75.6 1249 44.6 0550 0.00 2.53 14.60 4.2 20.9 1447 0.162 1.23 607 50.9 100 53 3.03 0.00 80 7.7 10.0 154 120 5.6 0817 -3.8 1403 - - - - - - 0.0 0.0 0.8 12.4
4/21/24 85.1 1609 39.4 0621 0.00 2.53 14.60 3.2 18.2 1336 0.212 1.18 633 49.3 98 26 9.50 0.00 60 14.4 12.2 146 110 7.0 1951 -3.7 1121 - - - - - - 0.0 0.0 4.3 12.3
4/20/24 80.9 1717 39.4 0613 0.00 2.53 14.60 2.4 12.5 1319 0.173 1.07 577 48.6 100 32 6.83 0.00 40 10.5 10.1 132 98 7.1 2128 -4.1 1041 - - - - - - 0.0 0.0 5.2 12.4
4/19/24 73.5 1645 44.9 0228 0.00 2.53 14.60 2.0 12.1 1324 0.151 0.94 542 50.6 100 36 4.14 0.00 50 7.1 9.2 121 88 3.4 1047 -4.1 1202 - - - - - - 0.0 0.0 0.1 12.4
Max 90.6 - 50.9 - 0.16 2.53 14.76 5.1 20.9 - 0.238 1.57 675 50.9 100 70 9.52 0.00 - 16.8 16.9 - - 9.9 - -3.7 - - - - - - - 0.3 0.0 9.0 12.5
Avg - - - - - - - 3.3 - - - - - 46.1 - - 4.71 0.00 - 9.7 8.5 - - - - - - - - - - - - 0.0 0.0 4.2 -
Min 61.1 - 31.8 - 0.00 0.00 14.60 2.0 12.1 - 0.071 0.94 309 38.9 93 16 0.00 0.00 - 2.6 0.0 - - 1.4 - -6.2 - - - - - - - 0.0 0.0 0.0 12.3
Total - - - - - - - - - - - - - - - - 141.22 0.00 - 290.5 254.8 - - - - - - - - - - - - 0.3 0.0 125.6 -